Time;durP1;ratioP1;P1;durP2;ratioP2;P2;SDS_P1;SDS_P2;PMS_P1;PMS_P2;Temp;Humidity;BMP_temperature;BMP_pressure;BME280_temperature;BME280_humidity;BME280_pressure;Samples;Min_cycle;Max_cycle;Signal;HPM_P1;HPM_P2
2021/07/24 00:00:17;;;;;;;;;;;;;;;18.29;61.35;100471.27;456734;113;922636;-64
2021/07/24 00:01:21;;;;;;;;;;;;;;;18.27;61.49;100467.94;456669;114;921421;-65
2021/07/24 00:02:24;;;;;;;;;;;;;;;18.26;61.65;100473.72;458308;112;922689;-66
2021/07/24 00:03:28;;;;;;;;;;;;;;;18.26;61.72;100468.20;456871;115;922676;-66
2021/07/24 00:04:31;;;;;;;;;;;;;;;18.27;61.81;100472.62;455506;112;922704;-66
2021/07/24 00:05:35;;;;;;;;;;;;;;;18.30;61.91;100472.10;456968;112;922704;-65
2021/07/24 00:06:38;;;;;;;;;;;;;;;18.30;61.86;100472.91;460473;113;922647;-65
2021/07/24 00:07:42;;;;;;;;;;;;;;;18.30;61.83;100472.91;456517;113;922685;-64
2021/07/24 00:08:45;;;;;;;;;;;;;;;18.31;61.87;100476.50;458117;114;922726;-65
2021/07/24 00:09:49;;;;;;;;;;;;;;;18.30;61.77;100472.91;457753;114;923178;-65
2021/07/24 00:10:52;;;;;;;;;;;;;;;18.30;61.78;100474.86;457417;113;922591;-65
2021/07/24 00:11:59;;;;;;;;;;;;;;;18.30;61.77;100472.10;455265;113;922787;-66
2021/07/24 00:13:02;;;;;;;;;;;;;;;18.28;61.75;100474.28;456802;112;923019;-66
2021/07/24 00:14:06;;;;;;;;;;;;;;;18.27;61.72;100472.62;457146;114;923621;-65
2021/07/24 00:15:10;;;;;;;;;;;;;;;18.26;61.65;100473.72;458092;112;922701;-66
2021/07/24 00:16:13;;;;;;;;;;;;;;;18.25;61.59;100474.80;457543;114;922684;-62
2021/07/24 00:17:17;;;;;;;;;;;;;;;18.24;61.40;100470.41;457220;113;922678;-62
2021/07/24 00:18:21;;;;;;;;;;;;;;;18.23;61.32;100472.34;456853;112;922692;-63
2021/07/24 00:19:25;;;;;;;;;;;;;;;18.22;61.32;100469.84;457754;113;922686;-63
2021/07/24 00:20:29;;;;;;;;;;;;;;;18.21;61.37;100473.69;457335;113;922228;-67
2021/07/24 00:21:33;;;;;;;;;;;;;;;18.19;61.41;100471.19;458870;112;922705;-67
2021/07/24 00:22:36;;;;;;;;;;;;;;;18.18;61.46;100474.23;457371;112;922461;-67
2021/07/24 00:23:40;;;;;;;;;;;;;;;18.17;61.43;100473.41;458946;113;922843;-65
2021/07/24 00:24:44;;;;;;;;;;;;;;;18.18;61.37;100475.08;456843;113;922717;-65
2021/07/24 00:25:48;;;;;;;;;;;;;;;18.19;61.33;100465.67;459182;112;922640;-64
2021/07/24 00:26:51;;;;;;;;;;;;;;;18.20;61.37;100483.06;459980;113;922531;-65
2021/07/24 00:27:55;;;;;;;;;;;;;;;18.19;61.38;100482.23;457919;112;922610;-65
2021/07/24 00:29:02;;;;;;;;;;;;;;;18.17;61.41;100478.92;455847;115;921493;-66
2021/07/24 00:30:05;;;;;;;;;;;;;;;18.17;61.36;100470.64;457547;112;922056;-64
2021/07/24 00:31:09;;;;;;;;;;;;;;;18.16;61.31;100479.18;458331;112;923739;-66
2021/07/24 00:32:15;;;;;;;;;;;;;;;18.13;61.34;100483.33;458139;113;921509;-66
2021/07/24 00:33:18;;;;;;;;;;;;;;;18.10;61.34;100478.32;456465;115;924237;-66
2021/07/24 00:34:23;;;;;;;;;;;;;;;18.07;61.33;100478.88;456298;113;923173;-66
2021/07/24 00:35:27;;;;;;;;;;;;;;;18.07;61.42;100483.55;456937;112;921482;-66
2021/07/24 00:36:31;;;;;;;;;;;;;;;18.03;61.43;100477.72;457349;112;921894;-65
2021/07/24 00:37:36;;;;;;;;;;;;;;;18.01;61.47;100484.61;457719;113;921453;-66
2021/07/24 00:38:40;;;;;;;;;;;;;;;18.00;61.57;100474.67;457441;112;921617;-66
2021/07/24 00:39:44;;;;;;;;;;;;;;;17.99;61.61;100478.52;457722;112;921558;-66
2021/07/24 00:40:50;;;;;;;;;;;;;;;17.96;61.61;100479.06;457388;113;921441;-66
2021/07/24 00:42:01;;;;;;;;;;;;;;;17.95;61.67;100482.92;440397;117;921706;-66
2021/07/24 00:43:06;;;;;;;;;;;;;;;17.93;61.76;100481.25;443103;117;921693;-67
2021/07/24 00:44:10;;;;;;;;;;;;;;;17.95;61.75;100477.40;444251;117;921516;-66
2021/07/24 00:45:15;;;;;;;;;;;;;;;17.95;61.84;100480.16;448808;115;921438;-67
2021/07/24 00:46:19;;;;;;;;;;;;;;;17.93;61.84;100478.49;449293;115;921434;-66
2021/07/24 00:47:24;;;;;;;;;;;;;;;17.91;61.95;100483.46;449842;115;921413;-66
2021/07/24 00:48:31;;;;;;;;;;;;;;;17.91;62.00;100477.95;450762;115;921529;-66
2021/07/24 00:49:36;;;;;;;;;;;;;;;17.89;62.05;100471.85;448234;115;921475;-66
2021/07/24 00:50:40;;;;;;;;;;;;;;;17.88;62.12;100472.94;445715;115;921407;-67
2021/07/24 00:51:45;;;;;;;;;;;;;;;17.88;62.19;100474.87;442891;117;921512;-65
2021/07/24 00:52:49;;;;;;;;;;;;;;;17.87;62.24;100476.79;443502;116;923440;-65
2021/07/24 00:53:54;;;;;;;;;;;;;;;17.87;62.27;100479.55;442273;118;922690;-65
2021/07/24 00:54:58;;;;;;;;;;;;;;;17.86;62.40;100480.64;443825;116;923300;-65
2021/07/24 00:56:03;;;;;;;;;;;;;;;17.86;62.50;100475.13;442805;117;922600;-63
2021/07/24 00:57:07;;;;;;;;;;;;;;;17.84;62.55;100476.50;441723;118;923277;-66
2021/07/24 00:58:25;;;;;;;;;;;;;;;17.84;62.64;100476.50;442444;118;922764;-65
2021/07/24 00:59:28;;;;;;;;;;;;;;;17.82;62.71;100479.52;444190;116;923812;-67
2021/07/24 01:00:32;;;;;;;;;;;;;;;17.82;62.69;100478.68;435069;121;922692;-64
2021/07/24 01:01:43;;;;;;;;;;;;;;;17.79;62.77;100480.06;436478;119;923199;-65
2021/07/24 01:02:42;;;;;;;;;;;;;;;17.77;62.78;100476.72;441486;118;922698;-64
2021/07/24 01:03:48;;;;;;;;;;;;;;;17.75;62.86;100478.91;442211;116;921542;-63
2021/07/24 01:04:52;;;;;;;;;;;;;;;17.73;62.93;100483.04;442362;117;922661;-65
2021/07/24 01:05:56;;;;;;;;;;;;;;;17.72;63.00;100482.20;441335;118;922644;-64
2021/07/24 01:07:02;;;;;;;;;;;;;;;17.73;63.07;100483.04;442398;117;922621;-64
2021/07/24 01:08:06;;;;;;;;;;;;;;;17.73;63.08;100488.55;441944;116;923151;-63
2021/07/24 01:09:10;;;;;;;;;;;;;;;17.70;63.09;100489.89;434385;119;922657;-65
2021/07/24 01:10:16;;;;;;;;;;;;;;;17.68;63.17;100483.84;433991;119;921782;-64
2021/07/24 01:11:22;;;;;;;;;;;;;;;17.66;63.14;100485.18;434741;119;923125;-64
2021/07/24 01:12:25;;;;;;;;;;;;;;;17.62;63.20;100487.64;433960;119;922760;-63
2021/07/24 01:13:29;;;;;;;;;;;;;;;17.60;63.19;100484.31;443603;117;923856;-62
2021/07/24 01:14:33;;;;;;;;;;;;;;;17.58;63.34;100483.73;443296;119;923639;-64
2021/07/24 01:15:38;;;;;;;;;;;;;;;17.57;63.32;100486.73;442846;117;922712;-63
2021/07/24 01:16:41;;;;;;;;;;;;;;;17.56;63.29;100483.15;442899;117;923141;-63
2021/07/24 01:17:47;;;;;;;;;;;;;;;17.56;63.31;100490.59;441549;118;922692;-62
2021/07/24 01:18:52;;;;;;;;;;;;;;;17.55;63.35;100486.99;435460;119;923126;-63
2021/07/24 01:19:57;;;;;;;;;;;;;;;17.53;63.30;100481.73;435560;117;923127;-64
2021/07/24 01:21:03;;;;;;;;;;;;;;;17.53;63.33;100487.25;442593;116;922654;-62
2021/07/24 01:22:08;;;;;;;;;;;;;;;17.53;63.25;100492.76;443073;117;922688;-62
2021/07/24 01:23:13;;;;;;;;;;;;;;;17.53;63.26;100493.88;442156;116;921544;-65
2021/07/24 01:24:16;;;;;;;;;;;;;;;17.51;63.27;100485.86;441759;116;921590;-64
2021/07/24 01:25:20;;;;;;;;;;;;;;;17.50;63.28;100492.47;444143;116;922260;-63
2021/07/24 01:26:26;;;;;;;;;;;;;;;17.49;63.32;100496.31;442930;117;922676;-64
2021/07/24 01:27:30;;;;;;;;;;;;;;;17.45;63.34;100490.50;434942;120;923128;-65
2021/07/24 01:28:34;;;;;;;;;;;;;;;17.45;63.40;100496.02;434834;119;921687;-64
2021/07/24 01:29:39;;;;;;;;;;;;;;;17.47;63.46;100495.77;434988;119;921605;-63
2021/07/24 01:30:44;;;;;;;;;;;;;;;17.46;63.45;100489.41;435294;120;921520;-63
2021/07/24 01:31:48;;;;;;;;;;;;;;;17.47;63.50;100501.27;443178;117;921707;-64
2021/07/24 01:32:53;;;;;;;;;;;;;;;17.47;63.46;100501.27;444014;116;921507;-62
2021/07/24 01:33:57;;;;;;;;;;;;;;;17.46;63.46;100497.69;445076;117;921472;-64
2021/07/24 01:35:00;;;;;;;;;;;;;;;17.46;63.53;100496.85;443576;116;921514;-63
2021/07/24 01:36:03;;;;;;;;;;;;;;;17.47;63.55;100496.59;443360;119;921322;-63
2021/07/24 01:37:07;;;;;;;;;;;;;;;17.47;63.57;100501.27;441381;117;921465;-64
2021/07/24 01:38:10;;;;;;;;;;;;;;;17.46;63.50;100502.36;443515;116;921499;-64
2021/07/24 01:39:14;;;;;;;;;;;;;;;17.44;63.58;100502.62;439827;119;921588;-64
2021/07/24 01:40:17;;;;;;;;;;;;;;;17.45;63.67;100506.20;439904;119;921559;-64
2021/07/24 01:41:21;;;;;;;;;;;;;;;17.45;63.64;100506.20;440218;120;921488;-64
2021/07/24 01:42:24;;;;;;;;;;;;;;;17.46;63.66;100505.13;439023;118;921592;-63
2021/07/24 01:43:29;;;;;;;;;;;;;;;17.47;63.57;100499.35;441816;118;921524;-65
2021/07/24 01:44:32;;;;;;;;;;;;;;;17.45;63.47;100504.28;443069;117;921312;-63
2021/07/24 01:45:37;;;;;;;;;;;;;;;17.44;63.44;100499.86;443337;118;921410;-65
2021/07/24 01:46:42;;;;;;;;;;;;;;;17.40;63.45;100498.73;442351;116;921522;-64
2021/07/24 01:47:49;;;;;;;;;;;;;;;17.38;63.50;100500.06;442880;118;921656;-64
2021/07/24 01:49:04;;;;;;;;;;;;;;;17.35;63.61;100498.69;442565;117;921507;-64
2021/07/24 01:52:49;;;;;;;;;;;;;;;17.30;63.75;100500.56;444669;118;922591;-64
2021/07/24 01:53:53;;;;;;;;;;;;;;;17.27;63.77;100507.41;444028;117;922906;-65
2021/07/24 01:54:59;;;;;;;;;;;;;;;17.25;63.83;100503.27;446233;116;922691;-62
2021/07/24 01:56:03;;;;;;;;;;;;;;;17.23;63.94;100509.03;445575;116;922557;-64
2021/07/24 01:57:09;;;;;;;;;;;;;;;17.22;64.02;100507.36;444983;116;923156;-63
2021/07/24 01:58:17;;;;;;;;;;;;;;;17.20;63.99;100500.47;444612;116;922653;-63
2021/07/24 01:59:27;;;;;;;;;;;;;;;17.15;64.11;100503.14;434075;116;923252;-65
2021/07/24 02:00:33;;;;;;;;;;;;;;;17.14;64.31;100507.02;447203;116;922646;-64
2021/07/24 02:01:39;;;;;;;;;;;;;;;17.12;64.41;100504.51;444009;118;922722;-64
2021/07/24 02:02:44;;;;;;;;;;;;;;;17.10;64.37;100504.76;445605;116;921894;-62
2021/07/24 02:03:50;;;;;;;;;;;;;;;17.09;64.39;100507.80;443982;116;923567;-63
2021/07/24 02:05:14;;;;;;;;;;;;;;;17.08;64.40;100508.88;445346;116;923973;-61
2021/07/24 02:06:20;;;;;;;;;;;;;;;17.05;64.44;100509.38;444192;116;922650;-63
2021/07/24 02:07:44;;;;;;;;;;;;;;;17.04;64.44;100500.28;444595;116;922678;-63
2021/07/24 02:08:48;;;;;;;;;;;;;;;17.04;64.46;100511.30;444001;116;921446;-63
2021/07/24 02:09:53;;;;;;;;;;;;;;;17.02;64.46;100507.16;444809;116;922632;-63
2021/07/24 02:10:59;;;;;;;;;;;;;;;17.02;64.50;100501.65;444135;116;922707;-63
2021/07/24 02:12:04;;;;;;;;;;;;;;;17.03;64.57;100512.42;444751;116;922717;-61
2021/07/24 02:13:10;;;;;;;;;;;;;;;17.04;64.52;100504.95;443172;116;922648;-63
2021/07/24 02:14:14;;;;;;;;;;;;;;;17.04;64.46;100505.80;443708;117;922965;-65
2021/07/24 02:15:18;;;;;;;;;;;;;;;17.05;64.53;100509.38;444504;117;922647;-63
2021/07/24 02:16:24;;;;;;;;;;;;;;;17.07;64.48;100507.21;445391;116;921914;-62
2021/07/24 02:17:29;;;;;;;;;;;;;;;17.06;64.42;100506.38;446162;116;923153;-64
2021/07/24 02:18:34;;;;;;;;;;;;;;;17.08;64.45;100514.39;444931;117;922728;-64
2021/07/24 02:19:39;;;;;;;;;;;;;;;17.08;64.50;100514.39;443722;117;922764;-64
2021/07/24 02:20:45;;;;;;;;;;;;;;;17.07;64.54;100508.05;445598;116;922749;-64
2021/07/24 02:21:49;;;;;;;;;;;;;;;17.06;64.62;100511.05;445660;116;921500;-63
2021/07/24 02:22:54;;;;;;;;;;;;;;;17.04;64.61;100513.22;444123;118;922573;-63
2021/07/24 02:23:58;;;;;;;;;;;;;;;17.02;64.67;100512.67;445502;117;922661;-63
2021/07/24 02:25:02;;;;;;;;;;;;;;;17.00;64.76;100512.92;446128;117;921452;-64
2021/07/24 02:26:08;;;;;;;;;;;;;;;16.98;64.84;100509.58;444806;116;921604;-64
2021/07/24 02:27:11;;;;;;;;;;;;;;;16.95;64.93;100515.62;445279;116;921411;-65
2021/07/24 02:28:18;;;;;;;;;;;;;;;16.94;65.05;100510.36;444824;116;921863;-62
2021/07/24 02:29:22;;;;;;;;;;;;;;;16.93;65.18;100512.28;445123;116;921515;-65
2021/07/24 02:30:25;;;;;;;;;;;;;;;16.94;65.33;100522.22;443965;118;921533;-63
2021/07/24 02:31:29;;;;;;;;;;;;;;;16.93;65.41;100515.03;444893;116;921393;-63
2021/07/24 02:32:32;;;;;;;;;;;;;;;16.94;65.44;100518.63;444558;116;921795;-64
2021/07/24 02:33:35;;;;;;;;;;;;;;;16.94;65.49;100513.95;445272;116;922191;-66
2021/07/24 02:34:41;;;;;;;;;;;;;;;16.93;65.50;100512.28;443557;116;921510;-64
2021/07/24 02:35:45;;;;;;;;;;;;;;;16.92;65.51;100510.64;444983;116;921528;-63
2021/07/24 02:36:52;;;;;;;;;;;;;;;16.92;65.57;100515.31;445010;116;921499;-64
2021/07/24 02:37:55;;;;;;;;;;;;;;;16.92;65.56;100516.15;444889;116;921530;-64
2021/07/24 02:38:59;;;;;;;;;;;;;;;16.93;65.63;100523.30;444839;116;921546;-64
2021/07/24 02:40:03;;;;;;;;;;;;;;;16.94;65.66;100524.13;445073;116;921454;-65
2021/07/24 02:41:07;;;;;;;;;;;;;;;16.96;65.69;100517.29;437130;119;921578;-64
2021/07/24 02:42:10;;;;;;;;;;;;;;;16.99;65.71;100522.27;438043;118;922625;-64
2021/07/24 02:43:16;;;;;;;;;;;;;;;16.99;65.72;100519.52;442732;118;922721;-63
2021/07/24 02:44:20;;;;;;;;;;;;;;;17.00;65.71;100518.42;445589;118;922705;-65
2021/07/24 02:45:24;;;;;;;;;;;;;;;17.02;65.70;100518.17;445977;116;922670;-64
2021/07/24 02:46:28;;;;;;;;;;;;;;;17.04;65.79;100515.98;445753;116;922720;-64
2021/07/24 02:47:32;;;;;;;;;;;;;;;17.08;65.78;100530.92;443488;117;922754;-65
2021/07/24 02:48:37;;;;;;;;;;;;;;;17.10;65.80;100524.05;436608;119;922742;-64
2021/07/24 02:49:51;;;;;;;;;;;;;;;17.13;65.77;100522.71;439001;118;922679;-64
2021/07/24 02:50:54;;;;;;;;;;;;;;;17.17;65.75;100528.52;444564;116;922708;-64
2021/07/24 02:51:58;;;;;;;;;;;;;;;17.19;65.66;100523.59;445110;118;923212;-64
2021/07/24 02:53:02;;;;;;;;;;;;;;;17.20;65.57;100528.02;444411;118;923113;-64
2021/07/24 02:54:07;;;;;;;;;;;;;;;17.21;65.52;100530.48;445807;118;922662;-62
2021/07/24 02:55:12;;;;;;;;;;;;;;;17.23;65.50;100533.00;445939;116;922667;-63
2021/07/24 02:56:15;;;;;;;;;;;;;;;17.22;65.43;100526.65;444784;116;922666;-62
2021/07/24 02:57:19;;;;;;;;;;;;;;;17.22;65.36;100528.57;445299;118;923143;-63
2021/07/24 02:58:23;;;;;;;;;;;;;;;17.22;65.48;100534.08;443996;118;922618;-64
2021/07/24 02:59:27;;;;;;;;;;;;;;;17.20;65.54;100530.77;444850;116;923062;-63
2021/07/24 03:00:31;;;;;;;;;;;;;;;17.19;65.61;100535.45;445892;116;922653;-64
2021/07/24 03:01:34;;;;;;;;;;;;;;;17.22;65.72;100539.59;446270;116;923068;-64
2021/07/24 03:02:39;;;;;;;;;;;;;;;17.23;65.72;100533.83;446173;116;922640;-64
2021/07/24 03:03:43;;;;;;;;;;;;;;;17.25;65.58;100533.58;446340;117;922773;-64
2021/07/24 03:04:47;;;;;;;;;;;;;;;17.26;65.51;100532.46;446134;116;922683;-63
2021/07/24 03:05:50;;;;;;;;;;;;;;;17.27;65.50;100537.72;445892;116;923090;-64
2021/07/24 03:06:55;;;;;;;;;;;;;;;17.29;65.50;100538.31;447048;117;921436;-62
2021/07/24 03:07:59;;;;;;;;;;;;;;;17.30;65.43;100539.98;446615;116;921555;-64
2021/07/24 03:09:04;;;;;;;;;;;;;;;17.30;65.28;100530.88;445534;116;922578;-64
2021/07/24 03:10:09;;;;;;;;;;;;;;;17.29;65.21;100541.06;445077;116;921456;-66
2021/07/24 03:11:12;;;;;;;;;;;;;;;17.29;65.21;100534.72;445570;118;921653;-63
2021/07/24 03:12:18;;;;;;;;;;;;;;;17.30;65.29;100539.14;445983;116;924717;-65
2021/07/24 03:13:24;;;;;;;;;;;;;;;17.32;65.33;100542.45;443618;118;921652;-63
2021/07/24 03:14:27;;;;;;;;;;;;;;;17.35;65.37;100545.53;445189;116;922691;-64
2021/07/24 03:15:31;;;;;;;;;;;;;;;17.37;65.25;100543.33;444920;116;922684;-61
2021/07/24 03:16:34;;;;;;;;;;;;;;;17.40;65.13;100550.27;445635;118;922669;-63
2021/07/24 03:17:38;;;;;;;;;;;;;;;17.42;65.00;100542.58;444025;117;921436;-64
2021/07/24 03:18:41;;;;;;;;;;;;;;;17.43;64.92;100544.22;444749;117;922752;-64
2021/07/24 03:19:45;;;;;;;;;;;;;;;17.45;64.86;100545.63;447190;118;923154;-63
2021/07/24 03:20:49;;;;;;;;;;;;;;;17.47;64.83;100545.37;446057;116;922640;-63
2021/07/24 03:21:52;;;;;;;;;;;;;;;17.48;64.81;100547.86;444213;117;922789;-65
2021/07/24 03:22:59;;;;;;;;;;;;;;;17.50;64.77;100544.84;445832;116;921527;-63
2021/07/24 03:24:01;;;;;;;;;;;;;;;17.52;64.61;100548.19;445735;116;921406;-64
2021/07/24 03:25:05;;;;;;;;;;;;;;;17.53;64.52;100549.85;447715;116;921762;-65
2021/07/24 03:26:08;;;;;;;;;;;;;;;17.55;64.48;100546.81;446131;116;921931;-64
2021/07/24 03:27:12;;;;;;;;;;;;;;;17.54;64.39;100540.47;446644;116;921546;-66
2021/07/24 03:28:15;;;;;;;;;;;;;;;17.55;64.35;100536.62;444735;118;921570;-65
2021/07/24 03:29:18;;;;;;;;;;;;;;;17.56;64.28;100537.45;445714;116;921710;-65
2021/07/24 03:30:22;;;;;;;;;;;;;;;17.57;64.19;100542.72;444760;117;921386;-63
2021/07/24 03:31:25;;;;;;;;;;;;;;;17.60;64.15;100544.12;445029;116;921852;-64
2021/07/24 03:32:28;;;;;;;;;;;;;;;17.60;64.08;100544.97;445266;116;921435;-64
2021/07/24 03:33:31;;;;;;;;;;;;;;;17.60;63.95;100544.97;445852;116;921470;-63
2021/07/24 03:34:34;;;;;;;;;;;;;;;17.61;63.89;100543.05;444113;116;921331;-64
2021/07/24 03:35:38;;;;;;;;;;;;;;;17.62;63.84;100542.79;444537;116;921490;-64
2021/07/24 03:36:41;;;;;;;;;;;;;;;17.62;63.93;100542.79;445339;116;921630;-64
2021/07/24 03:37:44;;;;;;;;;;;;;;;17.63;63.89;100538.95;444439;117;921421;-63
2021/07/24 03:38:47;;;;;;;;;;;;;;;17.63;63.93;100547.22;443586;116;923121;-64
2021/07/24 03:39:51;;;;;;;;;;;;;;;17.63;63.96;100543.62;449468;115;921407;-65
2021/07/24 03:40:55;;;;;;;;;;;;;;;17.64;64.04;100543.34;450341;115;921522;-64
2021/07/24 03:41:59;;;;;;;;;;;;;;;17.66;63.96;100543.09;451382;115;922626;-65
2021/07/24 03:43:03;;;;;;;;;;;;;;;17.68;63.95;100551.94;449092;116;922718;-64
2021/07/24 03:44:07;;;;;;;;;;;;;;;17.69;63.90;100546.17;449586;115;921592;-64
2021/07/24 03:45:12;;;;;;;;;;;;;;;17.71;63.81;100543.96;451511;115;922672;-64
2021/07/24 03:46:16;;;;;;;;;;;;;;;17.74;63.76;100548.14;451916;115;922691;-64
2021/07/24 03:47:20;;;;;;;;;;;;;;;17.77;63.73;100547.59;450974;115;922710;-64
2021/07/24 03:48:24;;;;;;;;;;;;;;;17.78;63.60;100541.83;450433;117;923170;-64
2021/07/24 03:49:27;;;;;;;;;;;;;;;17.80;63.52;100547.92;451237;115;922642;-62
2021/07/24 03:50:31;;;;;;;;;;;;;;;17.81;63.49;100544.05;451225;116;922557;-65
2021/07/24 03:51:37;;;;;;;;;;;;;;;17.82;63.46;100547.64;451400;114;923552;-64
2021/07/24 03:52:40;;;;;;;;;;;;;;;17.81;63.41;100549.56;453479;114;922616;-64
2021/07/24 03:53:44;;;;;;;;;;;;;;;17.82;63.40;100548.47;454347;114;923225;-62
2021/07/24 03:54:48;;;;;;;;;;;;;;;17.86;63.39;100554.31;454576;114;922536;-64
2021/07/24 03:55:51;;;;;;;;;;;;;;;17.88;63.36;100549.34;453220;116;922721;-64
2021/07/24 03:56:55;;;;;;;;;;;;;;;17.90;63.21;100555.44;452944;114;921609;-63
2021/07/24 03:58:00;;;;;;;;;;;;;;;17.91;63.17;100555.19;453097;114;923072;-63
2021/07/24 03:59:05;;;;;;;;;;;;;;;17.93;63.16;100555.73;452490;114;924130;-64
2021/07/24 04:00:09;;;;;;;;;;;;;;;17.95;63.17;100557.41;453764;114;921424;-64
2021/07/24 04:01:20;;;;;;;;;;;;;;;17.97;63.20;100546.95;452969;115;922703;-63
2021/07/24 04:02:24;;;;;;;;;;;;;;;17.99;63.25;100551.09;453905;115;922637;-63
2021/07/24 04:03:28;;;;;;;;;;;;;;;18.02;63.08;100552.50;451771;116;921425;-62
2021/07/24 04:04:32;;;;;;;;;;;;;;;18.03;62.97;100554.97;455171;114;923181;-62
2021/07/24 04:05:37;;;;;;;;;;;;;;;18.05;63.01;100540.92;453539;115;922748;-64
2021/07/24 04:06:41;;;;;;;;;;;;;;;18.06;63.01;100548.11;455370;114;923109;-62
2021/07/24 04:07:45;;;;;;;;;;;;;;;18.06;62.99;100548.94;452908;116;922641;-62
2021/07/24 04:08:49;;;;;;;;;;;;;;;18.07;63.04;100549.77;453839;115;922635;-63
2021/07/24 04:09:53;;;;;;;;;;;;;;;18.09;62.91;100550.32;454196;115;922698;-63
2021/07/24 04:10:57;;;;;;;;;;;;;;;18.13;62.78;100554.23;453530;115;922645;-65
2021/07/24 04:12:01;;;;;;;;;;;;;;;18.15;62.67;100543.75;452561;114;922678;-63
2021/07/24 04:13:05;;;;;;;;;;;;;;;18.18;62.67;100557.03;437414;118;921473;-64
2021/07/24 04:14:09;;;;;;;;;;;;;;;18.20;62.69;100552.89;440853;117;921476;-64
2021/07/24 04:15:13;;;;;;;;;;;;;;;18.21;62.65;100550.97;441779;117;921551;-61
2021/07/24 04:16:16;;;;;;;;;;;;;;;18.25;62.63;100557.61;440854;118;921519;-64
2021/07/24 04:17:19;;;;;;;;;;;;;;;18.27;62.59;100559.02;446441;116;921628;-63
2021/07/24 04:18:25;;;;;;;;;;;;;;;18.29;62.58;100558.77;447235;116;921464;-64
2021/07/24 04:19:29;;;;;;;;;;;;;;;18.31;62.67;100556.55;438775;118;921637;-64
2021/07/24 04:20:37;;;;;;;;;;;;;;;18.34;62.74;100554.10;438759;120;921589;-64
2021/07/24 04:21:40;;;;;;;;;;;;;;;18.38;62.59;100553.56;441517;118;921900;-64
2021/07/24 04:22:44;;;;;;;;;;;;;;;18.41;62.47;100561.33;441273;117;921486;-64
2021/07/24 04:23:47;;;;;;;;;;;;;;;18.44;62.43;100558.84;441900;117;921469;-64
2021/07/24 04:24:50;;;;;;;;;;;;;;;18.48;62.49;100564.66;441350;118;921539;-65
2021/07/24 04:25:53;;;;;;;;;;;;;;;18.51;62.45;100562.21;447113;115;921504;-64
2021/07/24 04:26:58;;;;;;;;;;;;;;;18.55;62.38;100554.24;448045;116;922673;-64
2021/07/24 04:28:02;;;;;;;;;;;;;;;18.58;62.28;100562.81;446716;116;923223;-64
2021/07/24 04:29:09;;;;;;;;;;;;;;;18.62;62.06;100563.96;446971;116;921671;-65
2021/07/24 04:30:11;;;;;;;;;;;;;;;18.66;62.04;100553.20;439218;117;923743;-62
2021/07/24 04:31:15;;;;;;;;;;;;;;;18.71;62.13;100561.50;440102;117;922683;-64
2021/07/24 04:32:19;;;;;;;;;;;;;;;18.74;62.10;100555.46;439879;117;923094;-64
2021/07/24 04:33:23;;;;;;;;;;;;;;;18.78;62.07;100551.05;448086;116;921411;-63
2021/07/24 04:34:28;;;;;;;;;;;;;;;18.83;62.03;100550.23;440988;118;922719;-63
2021/07/24 04:35:31;;;;;;;;;;;;;;;18.85;61.88;100556.33;447888;116;922745;-64
2021/07/24 04:36:35;;;;;;;;;;;;;;;18.86;61.87;100558.80;445828;115;922707;-65
2021/07/24 04:37:39;;;;;;;;;;;;;;;18.89;61.71;100565.73;445079;118;922627;-63
2021/07/24 04:38:42;;;;;;;;;;;;;;;18.90;61.54;100556.35;441690;118;922732;-67
2021/07/24 04:39:47;;;;;;;;;;;;;;;18.91;61.57;100560.78;448444;116;922706;-65
2021/07/24 04:40:51;;;;;;;;;;;;;;;18.94;61.46;100561.06;440928;118;922583;-66
2021/07/24 04:41:55;;;;;;;;;;;;;;;18.96;61.34;100560.80;440430;117;923310;-63
2021/07/24 04:42:58;;;;;;;;;;;;;;;18.98;61.27;100558.58;440159;117;922767;-65
2021/07/24 04:44:03;;;;;;;;;;;;;;;19.00;61.08;100556.38;442475;117;924567;-62
2021/07/24 04:45:07;;;;;;;;;;;;;;;19.03;60.91;100556.66;440364;119;922698;-64
2021/07/24 04:46:12;;;;;;;;;;;;;;;19.06;60.89;100564.42;442178;118;923149;-64
2021/07/24 04:47:16;;;;;;;;;;;;;;;19.09;60.81;100557.51;441563;117;922645;-66
2021/07/24 04:48:20;;;;;;;;;;;;;;;19.11;60.75;100558.92;442810;118;922661;-63
2021/07/24 04:49:25;;;;;;;;;;;;;;;19.14;60.71;100558.36;442691;118;922680;-64
2021/07/24 04:50:29;;;;;;;;;;;;;;;19.18;60.66;100555.91;441971;118;922748;-63
2021/07/24 04:51:35;;;;;;;;;;;;;;;19.22;60.68;100561.70;440936;117;922674;-64
2021/07/24 04:52:39;;;;;;;;;;;;;;;19.24;60.94;100560.31;445039;116;921580;-65
2021/07/24 04:53:44;;;;;;;;;;;;;;;19.27;60.82;100565.31;443221;118;922751;-64
2021/07/24 04:54:48;;;;;;;;;;;;;;;19.29;60.65;100570.58;444907;116;922782;-64
2021/07/24 04:55:52;;;;;;;;;;;;;;;19.29;60.47;100565.88;444719;117;921340;-63
2021/07/24 04:56:57;;;;;;;;;;;;;;;19.32;60.45;100570.85;445082;118;922879;-65
2021/07/24 04:58:00;;;;;;;;;;;;;;;19.35;60.47;100564.77;443837;118;922610;-62
2021/07/24 04:59:05;;;;;;;;;;;;;;;19.38;60.28;100567.00;443375;116;922745;-63
2021/07/24 05:00:10;;;;;;;;;;;;;;;19.40;60.13;100570.33;444429;116;921497;-65
2021/07/24 05:01:14;;;;;;;;;;;;;;;19.43;59.98;100575.30;445322;116;921592;-63
2021/07/24 05:02:19;;;;;;;;;;;;;;;19.45;59.89;100567.61;443415;118;921596;-63
2021/07/24 05:03:22;;;;;;;;;;;;;;;19.49;59.77;100574.24;443953;116;921524;-63
2021/07/24 05:04:26;;;;;;;;;;;;;;;19.52;59.76;100570.08;445872;116;921396;-63
2021/07/24 05:05:30;;;;;;;;;;;;;;;19.56;59.75;100579.52;444916;116;921467;-65
2021/07/24 05:06:35;;;;;;;;;;;;;;;19.59;59.78;100570.66;444539;116;921373;-64
2021/07/24 05:07:38;;;;;;;;;;;;;;;19.62;59.74;100583.13;446448;117;921678;-64
2021/07/24 05:08:41;;;;;;;;;;;;;;;19.64;59.79;100576.19;444983;116;921699;-63
2021/07/24 05:09:45;;;;;;;;;;;;;;;19.67;59.75;100572.06;445830;116;921370;-63
2021/07/24 05:10:48;;;;;;;;;;;;;;;19.71;59.79;100571.23;445409;116;921486;-63
2021/07/24 05:11:51;;;;;;;;;;;;;;;19.75;59.91;100579.80;444280;116;921715;-62
2021/07/24 05:12:55;;;;;;;;;;;;;;;19.76;59.90;100579.53;445853;116;921516;-64
2021/07/24 05:13:58;;;;;;;;;;;;;;;19.81;59.95;100573.16;444653;116;921774;-62
2021/07/24 05:15:01;;;;;;;;;;;;;;;19.83;60.01;100573.73;445075;117;921470;-61
2021/07/24 05:16:05;;;;;;;;;;;;;;;19.86;59.96;100579.53;445121;116;921480;-62
2021/07/24 05:17:09;;;;;;;;;;;;;;;19.89;60.09;100573.46;445564;116;922161;-63
2021/07/24 05:18:13;;;;;;;;;;;;;;;19.93;60.18;100569.02;444353;118;921453;-63
2021/07/24 05:19:16;;;;;;;;;;;;;;;19.96;60.08;100578.70;443600;118;921387;-63
2021/07/24 05:20:19;;;;;;;;;;;;;;;19.99;59.92;100576.22;444697;116;922975;-62
2021/07/24 05:21:23;;;;;;;;;;;;;;;20.02;59.59;100577.59;444841;117;921552;-62
2021/07/24 05:22:27;;;;;;;;;;;;;;;20.06;59.49;100577.88;444664;116;923236;-63
2021/07/24 05:23:30;;;;;;;;;;;;;;;20.08;59.35;100578.42;444578;116;922098;-64
2021/07/24 05:24:34;;;;;;;;;;;;;;;20.11;59.39;100580.65;444776;116;922674;-65
2021/07/24 05:25:38;;;;;;;;;;;;;;;20.14;59.37;100577.31;444214;118;922631;-63
2021/07/24 05:26:42;;;;;;;;;;;;;;;20.18;59.41;100581.20;446313;116;922648;-63
2021/07/24 05:27:45;;;;;;;;;;;;;;;20.20;59.29;100579.80;445338;117;923028;-66
2021/07/24 05:28:49;;;;;;;;;;;;;;;20.24;59.20;100583.66;444641;117;921628;-64
2021/07/24 05:29:53;;;;;;;;;;;;;;;20.28;59.19;100567.34;444285;116;922643;-63